createdAt,value
2022-09-01T00:00:16.395Z,98740.00
2022-09-01T00:02:46.230Z,98738.00
2022-09-01T00:05:15.885Z,98742.00
2022-09-01T00:07:45.581Z,98736.00
2022-09-01T00:10:15.062Z,98743.00
2022-09-01T00:12:44.611Z,98742.00
2022-09-01T00:15:14.984Z,98760.00
2022-09-01T00:17:44.502Z,98762.00
2022-09-01T00:20:17.084Z,98760.00
2022-09-01T00:22:50.173Z,98761.00
2022-09-01T00:25:22.385Z,98767.00
2022-09-01T00:27:52.895Z,98765.00
2022-09-01T00:30:23.513Z,98757.00
2022-09-01T00:32:53.037Z,98763.00
2022-09-01T00:35:22.534Z,98764.00
2022-09-01T00:37:51.963Z,98759.00
2022-09-01T00:40:21.619Z,98757.00
2022-09-01T00:42:51.303Z,98767.00
2022-09-01T00:45:23.159Z,98765.00
2022-09-01T00:47:52.568Z,98767.00
2022-09-01T00:50:23.303Z,98772.00
2022-09-01T00:52:57.187Z,98783.00
2022-09-01T00:55:36.690Z,98780.00
2022-09-01T00:58:19.505Z,98786.00
2022-09-01T01:00:54.093Z,98779.00
2022-09-01T01:03:25.205Z,98780.00
2022-09-01T01:05:59.311Z,98784.00
2022-09-01T01:08:35.040Z,98787.00
2022-09-01T01:11:12.485Z,98802.00
2022-09-01T01:14:13.299Z,98801.00
2022-09-01T01:16:46.779Z,98807.00
2022-09-01T01:20:02.168Z,98804.00
2022-09-01T01:23:22.833Z,98812.00
2022-09-01T01:26:00.181Z,98807.00
2022-09-01T01:28:35.692Z,98810.00
2022-09-01T01:31:13.591Z,98808.00
2022-09-01T01:33:51.228Z,98804.00
2022-09-01T01:36:37.387Z,98806.00
2022-09-01T01:39:18.601Z,98810.00
2022-09-01T01:41:50.570Z,98810.00
2022-09-01T01:44:29.449Z,98813.00
2022-09-01T01:46:59.308Z,98814.00
2022-09-01T01:49:30.270Z,98810.00
2022-09-01T01:52:00.209Z,98806.00
2022-09-01T01:54:32.523Z,98810.00
2022-09-01T01:57:05.701Z,98811.00
2022-09-01T01:59:35.080Z,98806.00
2022-09-01T02:02:09.647Z,98807.00
2022-09-01T02:04:41.196Z,98813.00
2022-09-01T02:07:15.530Z,98817.00
2022-09-01T02:09:47.484Z,98827.00
2022-09-01T02:12:26.193Z,98826.00
2022-09-01T02:14:56.232Z,98825.00
2022-09-01T02:17:26.652Z,98826.00
2022-09-01T02:19:59.356Z,98826.00
2022-09-01T02:22:29.751Z,98826.00
2022-09-01T02:24:59.046Z,98824.00
2022-09-01T02:27:30.791Z,98825.00
2022-09-01T02:30:00.031Z,98822.00
2022-09-01T02:32:29.499Z,98836.00
2022-09-01T02:35:02.423Z,98831.00
2022-09-01T02:37:32.419Z,98832.00
2022-09-01T02:40:02.302Z,98838.00
2022-09-01T02:42:31.875Z,98830.00
2022-09-01T02:45:02.736Z,98827.00
2022-09-01T02:47:32.349Z,98821.00
2022-09-01T02:50:04.617Z,98825.00
2022-09-01T02:52:37.264Z,98825.00
2022-09-01T02:55:07.084Z,98830.00
2022-09-01T02:57:36.789Z,98818.00
2022-09-01T03:00:23.820Z,98827.00
2022-09-01T03:02:54.570Z,98819.00
2022-09-01T03:05:28.172Z,98814.00
2022-09-01T03:08:01.520Z,98814.00
2022-09-01T03:10:39.164Z,98821.00
2022-09-01T03:13:15.185Z,98819.00
2022-09-01T03:15:45.984Z,98825.00
2022-09-01T03:18:16.702Z,98821.00
2022-09-01T03:20:47.986Z,98816.00
2022-09-01T03:23:19.691Z,98814.00
2022-09-01T03:25:50.485Z,98812.00
2022-09-01T03:28:20.188Z,98807.00
2022-09-01T03:30:54.454Z,98807.00
2022-09-01T03:33:26.336Z,98802.00
2022-09-01T03:35:57.151Z,98800.00
2022-09-01T03:38:27.758Z,98788.00
2022-09-01T03:41:04.609Z,98792.00
2022-09-01T03:43:36.499Z,98787.00
2022-09-01T03:46:06.288Z,98784.00
2022-09-01T03:48:35.571Z,98780.00
2022-09-01T03:51:04.853Z,98771.00
2022-09-01T03:53:39.425Z,98774.00
2022-09-01T03:56:10.046Z,98777.00
2022-09-01T03:58:40.269Z,98781.00
2022-09-01T04:01:13.644Z,98782.00
2022-09-01T04:03:46.376Z,98774.00
2022-09-01T04:06:16.469Z,98788.00
2022-09-01T04:08:47.926Z,98783.00
2022-09-01T04:11:24.651Z,98781.00
2022-09-01T04:13:57.455Z,98775.00
2022-09-01T04:16:43.928Z,98776.00
2022-09-01T04:19:26.700Z,98784.00
2022-09-01T04:22:02.542Z,98788.00
2022-09-01T04:24:34.300Z,98778.00
2022-09-01T04:27:08.457Z,98782.00
2022-09-01T04:29:38.474Z,98778.00
2022-09-01T04:32:13.903Z,98777.00
2022-09-01T04:34:43.331Z,98776.00
2022-09-01T04:37:19.816Z,98780.00
2022-09-01T04:39:57.520Z,98778.00
2022-09-01T04:42:30.501Z,98774.00
2022-09-01T04:45:08.966Z,98766.00
2022-09-01T04:47:43.055Z,98758.00
2022-09-01T04:50:18.484Z,98762.00
2022-09-01T04:52:48.901Z,98754.00
2022-09-01T04:55:21.409Z,98746.00
2022-09-01T04:57:51.864Z,98748.00
2022-09-01T05:00:23.882Z,98740.00
2022-09-01T05:03:04.700Z,98736.00
2022-09-01T05:05:47.117Z,98737.00
2022-09-01T05:08:23.589Z,98738.00
2022-09-01T05:10:57.427Z,98729.00
2022-09-01T05:13:28.400Z,98732.00
2022-09-01T05:16:13.864Z,98731.00
2022-09-01T05:18:48.559Z,98729.00
2022-09-01T05:21:27.777Z,98730.00
2022-09-01T05:24:01.815Z,98728.00
2022-09-01T05:26:35.748Z,98727.00
2022-09-01T05:29:14.441Z,98729.00
2022-09-01T05:31:50.511Z,98722.00
2022-09-01T05:34:27.792Z,98728.00
2022-09-01T05:37:00.733Z,98713.00
2022-09-01T05:39:30.743Z,98721.00
2022-09-01T05:42:02.740Z,98717.00
2022-09-01T05:44:32.060Z,98715.00
2022-09-01T05:47:01.901Z,98706.00
2022-09-01T05:49:34.142Z,98701.00
2022-09-01T05:52:03.649Z,98698.00
2022-09-01T05:54:33.615Z,98692.00
2022-09-01T05:57:23.271Z,98682.00
2022-09-01T05:59:54.774Z,98688.00
2022-09-01T06:02:27.579Z,98677.00
2022-09-01T06:04:58.166Z,98672.00
2022-09-01T06:07:29.587Z,98671.00
2022-09-01T06:10:00.864Z,98669.00
2022-09-01T06:12:30.314Z,98666.00
2022-09-01T06:15:00.245Z,98660.00
2022-09-01T06:17:34.649Z,98653.00
2022-09-01T06:20:11.531Z,98644.00
2022-09-01T06:22:42.065Z,98635.00
2022-09-01T06:25:12.111Z,98633.00
2022-09-01T06:27:45.487Z,98634.00
2022-09-01T06:30:24.226Z,98632.00
2022-09-01T06:32:55.573Z,98627.00
2022-09-01T06:35:30.585Z,98622.00
2022-09-01T06:38:01.102Z,98605.00
2022-09-01T06:40:30.909Z,98597.00
2022-09-01T06:43:03.432Z,98591.00
2022-09-01T06:45:32.664Z,98583.00
2022-09-01T06:48:03.278Z,98580.00
2022-09-01T06:53:38.987Z,98581.00
2022-09-01T06:56:12.229Z,98571.00
2022-09-01T06:58:49.232Z,98573.00
2022-09-01T07:01:22.440Z,98560.00
2022-09-01T07:03:54.729Z,98552.00
2022-09-01T07:09:46.263Z,98547.00
2022-09-01T07:12:26.511Z,98543.00
2022-09-01T07:17:54.568Z,98536.00
2022-09-01T07:20:28.224Z,98517.00
2022-09-01T07:23:07.057Z,98512.00
2022-09-01T07:26:00.953Z,98511.00
2022-09-01T07:28:36.873Z,98495.00
2022-09-01T07:39:50.117Z,98470.00
2022-09-01T07:45:29.207Z,98456.00
2022-09-01T07:48:07.457Z,98459.00
2022-09-01T07:51:35.058Z,98448.00
2022-09-01T07:53:37.163Z,98443.00
2022-09-01T07:56:12.931Z,98437.00
2022-09-01T07:58:46.098Z,98443.00
2022-09-01T08:01:21.219Z,98439.00
2022-09-01T08:03:56.198Z,98441.00
2022-09-01T08:06:29.013Z,98436.00
2022-09-01T08:09:01.876Z,98430.00
2022-09-01T08:12:00.642Z,98435.00
2022-09-01T08:14:22.608Z,98430.00
2022-09-01T08:16:53.179Z,98427.00
2022-09-01T08:19:22.895Z,98424.00
2022-09-01T08:21:52.278Z,98415.00
2022-09-01T08:24:21.572Z,98422.00
2022-09-01T08:26:50.885Z,98414.00
2022-09-01T08:29:20.149Z,98414.00
2022-09-01T08:31:49.732Z,98408.00
2022-09-01T08:34:19.091Z,98403.00
2022-09-01T08:36:49.665Z,98406.00
2022-09-01T08:39:18.940Z,98401.00
2022-09-01T08:42:33.827Z,98407.00
2022-09-01T08:45:26.741Z,98416.00
2022-09-01T08:51:23.621Z,98410.00
2022-09-01T08:54:29.507Z,98417.00
2022-09-01T08:57:23.149Z,98406.00
2022-09-01T08:59:57.611Z,98415.00
2022-09-01T09:03:12.132Z,98422.00
2022-09-01T09:06:18.811Z,98424.00
2022-09-01T09:09:10.862Z,98450.00
2022-09-01T09:12:13.133Z,98442.00
2022-09-01T09:15:24.574Z,98434.00
2022-09-01T09:18:39.575Z,98428.00
2022-09-01T09:21:24.582Z,98429.00
2022-09-01T09:24:22.420Z,98423.00
2022-09-01T09:26:54.963Z,98417.00
2022-09-01T09:29:25.448Z,98412.00
2022-09-01T09:32:39.373Z,98420.00
2022-09-01T09:35:19.585Z,98423.00
2022-09-01T09:37:48.999Z,98423.00
2022-09-01T09:40:28.284Z,98425.00
2022-09-01T09:43:08.125Z,98441.00
2022-09-01T09:45:42.471Z,98438.00
2022-09-01T09:48:35.232Z,98427.00
2022-09-01T09:51:22.794Z,98430.00
2022-09-01T09:53:52.346Z,98446.00
2022-09-01T09:56:26.804Z,98452.00
2022-09-01T09:58:56.066Z,98445.00
2022-09-01T10:01:33.614Z,98432.00
2022-09-01T10:04:05.312Z,98423.00
2022-09-01T10:06:55.398Z,98421.00
2022-09-01T10:09:40.472Z,98431.00
2022-09-01T10:12:13.302Z,98433.00
2022-09-01T10:15:13.940Z,98444.00
2022-09-01T10:17:46.507Z,98451.00
2022-09-01T10:20:26.536Z,98455.00
2022-09-01T10:22:57.521Z,98444.00
2022-09-01T10:25:34.733Z,98442.00
2022-09-01T10:28:25.680Z,98434.00
2022-09-01T10:30:57.840Z,98426.00
2022-09-01T10:33:27.759Z,98431.00
2022-09-01T10:35:58.319Z,98435.00
2022-09-01T10:38:31.885Z,98428.00
2022-09-01T10:41:10.124Z,98432.00
2022-09-01T10:43:50.433Z,98425.00
2022-09-01T10:46:51.237Z,98426.00
2022-09-01T10:50:07.443Z,98419.00
2022-09-01T10:53:01.957Z,98415.00
2022-09-01T10:55:46.209Z,98426.00
2022-09-01T11:02:27.602Z,98421.00
2022-09-01T11:05:17.069Z,98427.00
2022-09-01T11:08:14.712Z,98424.00
2022-09-01T11:10:56.603Z,98421.00
2022-09-01T11:13:56.997Z,98431.00
2022-09-01T11:17:06.672Z,98436.00
2022-09-01T11:20:11.967Z,98436.00
2022-09-01T11:23:14.909Z,98440.00
2022-09-01T11:26:19.801Z,98438.00
2022-09-01T11:28:49.831Z,98442.00
2022-09-01T11:31:45.279Z,98444.00
2022-09-01T11:34:24.744Z,98446.00
2022-09-01T11:37:00.581Z,98448.00
2022-09-01T11:39:44.323Z,98443.00
2022-09-01T11:42:46.645Z,98448.00
2022-09-01T11:45:29.901Z,98451.00
2022-09-01T11:48:08.250Z,98462.00
2022-09-01T11:50:40.159Z,98463.00
2022-09-01T11:53:25.514Z,98463.00
2022-09-01T11:55:58.394Z,98476.00
2022-09-01T11:58:40.310Z,98480.00
2022-09-01T12:01:41.674Z,98485.00
2022-09-01T12:04:39.022Z,98490.00
2022-09-01T12:07:25.999Z,98484.00
2022-09-01T12:09:55.567Z,98480.00
2022-09-01T12:12:38.994Z,98480.00
2022-09-01T12:15:30.118Z,98480.00
2022-09-01T12:18:30.284Z,98484.00
2022-09-01T12:21:06.718Z,98492.00
2022-09-01T12:23:46.340Z,98502.00
2022-09-01T12:26:21.332Z,98504.00
2022-09-01T12:28:51.271Z,98510.00
2022-09-01T12:31:28.612Z,98514.00
2022-09-01T12:33:58.479Z,98513.00
2022-09-01T12:36:38.877Z,98521.00
2022-09-01T12:39:25.193Z,98526.00
2022-09-01T12:42:40.759Z,98526.00
2022-09-01T12:45:14.162Z,98534.00
2022-09-01T12:47:51.781Z,98543.00
2022-09-01T12:50:44.609Z,98546.00
2022-09-01T12:53:22.337Z,98559.00
2022-09-01T12:56:08.095Z,98554.00
2022-09-01T12:58:37.523Z,98557.00
2022-09-01T13:01:16.341Z,98565.00
2022-09-01T13:04:30.681Z,98567.00
2022-09-01T13:07:09.344Z,98567.00
2022-09-01T13:09:39.090Z,98582.00
2022-09-01T13:12:17.388Z,98587.00
2022-09-01T13:14:46.318Z,98595.00
2022-09-01T13:17:16.085Z,98596.00
2022-09-01T13:19:48.477Z,98596.00
2022-09-01T13:22:17.867Z,98609.00
2022-09-01T13:24:47.162Z,98616.00
2022-09-01T13:27:23.620Z,98619.00
2022-09-01T13:29:55.645Z,98628.00
2022-09-01T13:32:26.230Z,98623.00
2022-09-01T13:34:56.491Z,98629.00
2022-09-01T13:37:26.662Z,98630.00
2022-09-01T13:39:56.034Z,98630.00
2022-09-01T13:42:26.996Z,98629.00
2022-09-01T13:44:58.773Z,98643.00
2022-09-01T13:47:29.173Z,98638.00
2022-09-01T13:50:09.810Z,98645.00
2022-09-01T13:52:55.071Z,98657.00
2022-09-01T13:55:36.597Z,98650.00
2022-09-01T13:58:06.019Z,98650.00
2022-09-01T14:00:46.322Z,98656.00
2022-09-01T14:03:21.598Z,98668.00
2022-09-01T14:05:52.072Z,98677.00
2022-09-01T14:08:23.845Z,98685.00
2022-09-01T14:10:55.684Z,98698.00
2022-09-01T14:13:27.333Z,98694.00
2022-09-01T14:15:56.903Z,98716.00
2022-09-01T14:18:33.127Z,98712.00
2022-09-01T14:21:02.466Z,98713.00
2022-09-01T14:23:32.085Z,98718.00
2022-09-01T14:26:01.341Z,98720.00
2022-09-01T14:28:31.156Z,98721.00
2022-09-01T14:31:03.234Z,98724.00
2022-09-01T14:33:37.516Z,98731.00
2022-09-01T14:36:15.863Z,98728.00
2022-09-01T14:38:44.721Z,98733.00
2022-09-01T14:41:25.759Z,98736.00
2022-09-01T14:44:03.257Z,98740.00
2022-09-01T14:46:35.342Z,98746.00
2022-09-01T14:49:06.006Z,98741.00
2022-09-01T14:54:26.992Z,98752.00
2022-09-01T14:59:45.594Z,98746.00
2022-09-01T15:02:16.506Z,98747.00
2022-09-01T15:04:46.027Z,98758.00
2022-09-01T15:07:23.495Z,98753.00
2022-09-01T15:09:52.888Z,98752.00
2022-09-01T15:12:25.927Z,98753.00
2022-09-01T15:14:55.304Z,98759.00
2022-09-01T15:17:24.649Z,98756.00
2022-09-01T15:19:55.446Z,98760.00
2022-09-01T15:22:27.319Z,98774.00
2022-09-01T15:24:58.788Z,98762.00
2022-09-01T15:27:28.384Z,98767.00
2022-09-01T15:30:00.883Z,98769.00
2022-09-01T15:32:33.509Z,98766.00
2022-09-01T15:35:11.875Z,98770.00
2022-09-01T15:37:40.808Z,98775.00
2022-09-01T15:40:11.422Z,98769.00
2022-09-01T15:42:41.498Z,98771.00
2022-09-01T15:45:18.183Z,98771.00
2022-09-01T15:47:54.648Z,98765.00
2022-09-01T15:50:28.759Z,98765.00
2022-09-01T15:53:08.266Z,98767.00
2022-09-01T15:55:46.107Z,98763.00
2022-09-01T15:58:20.094Z,98758.00
2022-09-01T16:00:49.691Z,98751.00
2022-09-01T16:03:22.291Z,98755.00
2022-09-01T16:05:51.748Z,98750.00
2022-09-01T16:08:21.060Z,98753.00
2022-09-01T16:10:50.417Z,98758.00
2022-09-01T16:13:24.600Z,98758.00
2022-09-01T16:16:38.649Z,98754.00
2022-09-01T16:19:39.336Z,98759.00
2022-09-01T16:22:32.852Z,98753.00
2022-09-01T16:25:13.294Z,98752.00
2022-09-01T16:27:47.090Z,98755.00
2022-09-01T16:30:25.180Z,98752.00
2022-09-01T16:32:55.483Z,98757.00
2022-09-01T16:35:45.777Z,98760.00
2022-09-01T16:38:55.439Z,98754.00
2022-09-01T16:42:15.826Z,98748.00
2022-09-01T16:45:42.851Z,98737.00
2022-09-01T16:48:56.276Z,98736.00
2022-09-01T16:52:06.557Z,98729.00
2022-09-01T16:55:19.503Z,98721.00
2022-09-01T16:58:23.453Z,98721.00
2022-09-01T17:01:46.410Z,98720.00
2022-09-01T17:04:42.017Z,98704.00
2022-09-01T17:07:24.591Z,98708.00
2022-09-01T17:10:44.704Z,98706.00
2022-09-01T17:13:43.916Z,98709.00
2022-09-01T17:16:27.819Z,98714.00
2022-09-01T17:19:02.966Z,98710.00
2022-09-01T17:22:11.630Z,98702.00
2022-09-01T17:24:51.853Z,98691.00
2022-09-01T17:27:39.798Z,98690.00
2022-09-01T17:30:10.367Z,98687.00
2022-09-01T17:33:17.320Z,98680.00
2022-09-01T17:36:32.563Z,98678.00
2022-09-01T17:39:46.985Z,98671.00
2022-09-01T17:42:42.576Z,98673.00
2022-09-01T17:45:37.282Z,98669.00
2022-09-01T17:48:39.046Z,98662.00
2022-09-01T17:51:36.845Z,98651.00
2022-09-01T17:54:43.513Z,98656.00
2022-09-01T17:57:54.080Z,98647.00
2022-09-01T18:00:49.599Z,98647.00
2022-09-01T18:04:12.457Z,98651.00
2022-09-01T18:07:08.951Z,98648.00
2022-09-01T18:09:53.445Z,98656.00
2022-09-01T18:12:34.494Z,98656.00
2022-09-01T18:15:21.215Z,98657.00
2022-09-01T18:18:17.957Z,98658.00
2022-09-01T18:20:51.119Z,98648.00
2022-09-01T18:23:22.654Z,98651.00
2022-09-01T18:26:33.493Z,98641.00
2022-09-01T18:29:05.877Z,98640.00
2022-09-01T18:32:27.851Z,98632.00
2022-09-01T18:35:23.892Z,98635.00
2022-09-01T18:38:31.114Z,98637.00
2022-09-01T18:41:42.467Z,98634.00
2022-09-01T18:44:57.845Z,98621.00
2022-09-01T18:47:35.105Z,98625.00
2022-09-01T18:50:31.868Z,98627.00
2022-09-01T18:53:47.178Z,98629.00
2022-09-01T18:56:59.295Z,98637.00
2022-09-01T19:00:16.976Z,98638.00
2022-09-01T19:03:33.917Z,98640.00
2022-09-01T19:06:32.323Z,98636.00
2022-09-01T19:09:32.341Z,98626.00
2022-09-01T19:12:51.069Z,98629.00
2022-09-01T19:16:07.347Z,98625.00
2022-09-01T19:19:30.985Z,98621.00
2022-09-01T19:22:00.243Z,98620.00
2022-09-01T19:24:49.993Z,98622.00
2022-09-01T19:27:33.811Z,98620.00
2022-09-01T19:30:07.563Z,98617.00
2022-09-01T19:32:38.325Z,98615.00
2022-09-01T19:35:17.986Z,98620.00
2022-09-01T19:37:51.607Z,98610.00
2022-09-01T19:40:31.809Z,98618.00
2022-09-01T19:43:14.471Z,98611.00
2022-09-01T19:46:14.205Z,98605.00
2022-09-01T19:49:07.139Z,98604.00
2022-09-01T19:51:52.532Z,98597.00
2022-09-01T19:54:57.520Z,98599.00
2022-09-01T19:57:50.965Z,98602.00
2022-09-01T20:00:36.966Z,98604.00
2022-09-01T20:03:14.361Z,98607.00
2022-09-01T20:06:03.000Z,98601.00
2022-09-01T20:08:57.847Z,98599.00
2022-09-01T20:11:57.143Z,98594.00
2022-09-01T20:15:02.080Z,98596.00
2022-09-01T20:17:53.565Z,98606.00
2022-09-01T20:20:34.191Z,98604.00
2022-09-01T20:23:29.821Z,98604.00
2022-09-01T20:26:20.358Z,98610.00
2022-09-01T20:29:22.441Z,98621.00
2022-09-01T20:31:58.123Z,98616.00
2022-09-01T20:34:50.099Z,98613.00
2022-09-01T20:37:34.175Z,98616.00
2022-09-01T20:40:36.753Z,98613.00
2022-09-01T20:43:30.436Z,98624.00
2022-09-01T20:45:59.876Z,98624.00
2022-09-01T20:48:31.492Z,98624.00
2022-09-01T20:51:49.643Z,98618.00
2022-09-01T20:54:46.121Z,98608.00
2022-09-01T20:57:44.014Z,98603.00
2022-09-01T21:00:24.997Z,98601.00
2022-09-01T21:03:34.382Z,98601.00
2022-09-01T21:06:47.872Z,98605.00
2022-09-01T21:10:01.346Z,98599.00
2022-09-01T21:13:05.069Z,98605.00
2022-09-01T21:16:33.247Z,98604.00
2022-09-01T21:19:46.752Z,98607.00
2022-09-01T21:22:21.937Z,98609.00
2022-09-01T21:24:52.514Z,98619.00
2022-09-01T21:27:28.410Z,98621.00
2022-09-01T21:30:17.667Z,98623.00
2022-09-01T21:32:47.710Z,98621.00
2022-09-01T21:35:21.145Z,98618.00
2022-09-01T21:37:51.879Z,98624.00
2022-09-01T21:40:26.653Z,98628.00
2022-09-01T21:43:10.240Z,98630.00
2022-09-01T21:45:40.370Z,98628.00
2022-09-01T21:48:10.278Z,98627.00
2022-09-01T21:50:41.623Z,98624.00
2022-09-01T21:53:14.818Z,98619.00
2022-09-01T21:55:44.846Z,98609.00
2022-09-01T21:58:14.755Z,98605.00
2022-09-01T22:00:45.640Z,98618.00
2022-09-01T22:03:15.161Z,98614.00
2022-09-01T22:05:45.925Z,98614.00
2022-09-01T22:08:18.369Z,98606.00
2022-09-01T22:10:52.577Z,98604.00
2022-09-01T22:13:26.188Z,98617.00
2022-09-01T22:15:56.695Z,98614.00
2022-09-01T22:18:26.186Z,98617.00
2022-09-01T22:21:08.317Z,98626.00
2022-09-01T22:23:38.936Z,98631.00
2022-09-01T22:26:12.488Z,98631.00
2022-09-01T22:28:45.246Z,98631.00
2022-09-01T22:31:21.492Z,98628.00
2022-09-01T22:33:50.958Z,98630.00
2022-09-01T22:36:33.615Z,98636.00
2022-09-01T22:39:03.592Z,98634.00
2022-09-01T22:41:35.388Z,98635.00
2022-09-01T22:44:06.491Z,98636.00
2022-09-01T22:46:38.227Z,98635.00
2022-09-01T22:49:07.815Z,98634.00
2022-09-01T22:51:40.125Z,98634.00
2022-09-01T22:54:11.881Z,98633.00
2022-09-01T22:56:43.497Z,98652.00
2022-09-01T22:59:16.687Z,98653.00
2022-09-01T23:01:48.816Z,98644.00
2022-09-01T23:04:20.026Z,98642.00
2022-09-01T23:06:54.997Z,98632.00
2022-09-01T23:09:24.389Z,98639.00
2022-09-01T23:11:53.835Z,98646.00
2022-09-01T23:14:23.535Z,98650.00
2022-09-01T23:16:53.998Z,98654.00
2022-09-01T23:19:25.505Z,98660.00
2022-09-01T23:21:55.801Z,98668.00
2022-09-01T23:24:25.865Z,98679.00
2022-09-01T23:26:56.185Z,98679.00
2022-09-01T23:29:26.934Z,98669.00
2022-09-01T23:31:59.223Z,98677.00
2022-09-01T23:34:29.320Z,98687.00
2022-09-01T23:36:59.302Z,98685.00
2022-09-01T23:39:29.270Z,98688.00
2022-09-01T23:41:59.821Z,98691.00
2022-09-01T23:44:29.866Z,98697.00
2022-09-01T23:46:59.907Z,98692.00
2022-09-01T23:49:29.915Z,98701.00
2022-09-01T23:52:00.221Z,98705.00
2022-09-01T23:54:30.167Z,98703.00
2022-09-01T23:57:00.286Z,98700.00
2022-09-01T23:59:31.187Z,98708.00
